sensor_id;sensor_type;location;lat;lon;timestamp;temperature;humidity
68746;SHT31;66104;45.456;11.064;2023-05-02T07:29:08;16.16;64.45
68746;SHT31;66104;45.456;11.064;2023-05-02T07:31:45;16.19;65.00
68746;SHT31;66104;45.456;11.064;2023-05-02T07:34:22;16.20;65.48
68746;SHT31;66104;45.456;11.064;2023-05-02T07:36:59;16.22;65.69
68746;SHT31;66104;45.456;11.064;2023-05-02T07:39:36;16.23;66.14
68746;SHT31;66104;45.456;11.064;2023-05-02T07:42:13;16.24;67.41
68746;SHT31;66104;45.456;11.064;2023-05-02T07:44:49;16.23;68.47
68746;SHT31;66104;45.456;11.064;2023-05-02T07:47:27;16.18;68.84
68746;SHT31;66104;45.456;11.064;2023-05-02T07:50:04;16.15;68.97
68746;SHT31;66104;45.456;11.064;2023-05-02T07:52:44;16.14;69.07
68746;SHT31;66104;45.456;11.064;2023-05-02T07:55:22;16.15;68.90
68746;SHT31;66104;45.456;11.064;2023-05-02T07:58:01;16.14;69.03
68746;SHT31;66104;45.456;11.064;2023-05-02T08:00:38;16.14;68.89
68746;SHT31;66104;45.456;11.064;2023-05-02T08:03:16;16.16;68.96
68746;SHT31;66104;45.456;11.064;2023-05-02T08:05:53;16.19;69.42
68746;SHT31;66104;45.456;11.064;2023-05-02T08:08:31;16.22;69.63
68746;SHT31;66104;45.456;11.064;2023-05-02T08:11:08;16.27;69.80
68746;SHT31;66104;45.456;11.064;2023-05-02T08:13:45;16.32;70.37
68746;SHT31;66104;45.456;11.064;2023-05-02T08:16:21;16.36;70.90
68746;SHT31;66104;45.456;11.064;2023-05-02T08:18:58;16.40;71.93
68746;SHT31;66104;45.456;11.064;2023-05-02T08:21:35;16.44;71.53
68746;SHT31;66104;45.456;11.064;2023-05-02T08:24:13;16.47;72.08
68746;SHT31;66104;45.456;11.064;2023-05-02T08:26:52;16.50;72.64
68746;SHT31;66104;45.456;11.064;2023-05-02T08:29:31;16.53;72.82
68746;SHT31;66104;45.456;11.064;2023-05-02T08:32:09;16.56;73.16
68746;SHT31;66104;45.456;11.064;2023-05-02T08:34:46;16.59;73.12
68746;SHT31;66104;45.456;11.064;2023-05-02T08:37:25;16.62;72.71
68746;SHT31;66104;45.456;11.064;2023-05-02T08:40:02;16.67;72.46
68746;SHT31;66104;45.456;11.064;2023-05-02T08:43:06;16.73;71.55
68746;SHT31;66104;45.456;11.064;2023-05-02T08:45:43;16.78;71.25
68746;SHT31;66104;45.456;11.064;2023-05-02T08:48:24;16.83;71.70
68746;SHT31;66104;45.456;11.064;2023-05-02T08:51:08;16.87;71.75
68746;SHT31;66104;45.456;11.064;2023-05-02T08:53:47;16.92;72.29
68746;SHT31;66104;45.456;11.064;2023-05-02T08:56:25;16.95;72.26
68746;SHT31;66104;45.456;11.064;2023-05-02T08:59:04;16.98;72.75
68746;SHT31;66104;45.456;11.064;2023-05-02T09:01:44;17.00;72.95
68746;SHT31;66104;45.456;11.064;2023-05-02T09:04:29;17.02;72.17
68746;SHT31;66104;45.456;11.064;2023-05-02T09:07:11;17.03;71.77
68746;SHT31;66104;45.456;11.064;2023-05-02T09:09:48;17.01;72.02
68746;SHT31;66104;45.456;11.064;2023-05-02T09:12:26;17.00;71.97
68746;SHT31;66104;45.456;11.064;2023-05-02T09:15:10;17.02;72.52
68746;SHT31;66104;45.456;11.064;2023-05-02T09:17:48;17.03;72.91
68746;SHT31;66104;45.456;11.064;2023-05-02T09:20:25;17.03;73.17
68746;SHT31;66104;45.456;11.064;2023-05-02T09:23:12;17.05;73.18
68746;SHT31;66104;45.456;11.064;2023-05-02T09:25:49;17.06;73.49
68746;SHT31;66104;45.456;11.064;2023-05-02T09:28:38;17.06;73.74
68746;SHT31;66104;45.456;11.064;2023-05-02T09:31:18;17.07;73.42
68746;SHT31;66104;45.456;11.064;2023-05-02T09:34:18;17.07;70.92
68746;SHT31;66104;45.456;11.064;2023-05-02T09:36:55;17.10;71.36
68746;SHT31;66104;45.456;11.064;2023-05-02T09:39:33;17.13;71.10
68746;SHT31;66104;45.456;11.064;2023-05-02T09:42:10;17.16;70.84
68746;SHT31;66104;45.456;11.064;2023-05-02T09:45:04;17.21;69.46
68746;SHT31;66104;45.456;11.064;2023-05-02T09:47:52;17.26;68.52
68746;SHT31;66104;45.456;11.064;2023-05-02T09:50:35;17.30;66.96
68746;SHT31;66104;45.456;11.064;2023-05-02T09:53:12;17.31;66.67
68746;SHT31;66104;45.456;11.064;2023-05-02T09:55:49;17.33;65.54
68746;SHT31;66104;45.456;11.064;2023-05-02T09:58:36;17.36;64.00
68746;SHT31;66104;45.456;11.064;2023-05-02T10:01:17;17.38;63.51
68746;SHT31;66104;45.456;11.064;2023-05-02T10:03:55;17.36;63.07
68746;SHT31;66104;45.456;11.064;2023-05-02T10:06:34;17.35;63.06
68746;SHT31;66104;45.456;11.064;2023-05-02T10:09:11;17.37;63.87
68746;SHT31;66104;45.456;11.064;2023-05-02T10:11:53;17.39;63.88
68746;SHT31;66104;45.456;11.064;2023-05-02T10:14:34;17.40;64.05
68746;SHT31;66104;45.456;11.064;2023-05-02T10:17:18;17.42;63.99
68746;SHT31;66104;45.456;11.064;2023-05-02T10:20:02;17.45;64.41
68746;SHT31;66104;45.456;11.064;2023-05-02T10:22:45;17.50;64.29
68746;SHT31;66104;45.456;11.064;2023-05-02T10:25:23;17.54;64.46
68746;SHT31;66104;45.456;11.064;2023-05-02T10:28:01;17.56;62.92
68746;SHT31;66104;45.456;11.064;2023-05-02T10:30:39;17.56;61.83
68746;SHT31;66104;45.456;11.064;2023-05-02T10:33:18;17.55;62.71
68746;SHT31;66104;45.456;11.064;2023-05-02T10:35:55;17.57;62.66
68746;SHT31;66104;45.456;11.064;2023-05-02T10:38:32;17.58;63.32
68746;SHT31;66104;45.456;11.064;2023-05-02T10:41:11;17.61;63.52
68746;SHT31;66104;45.456;11.064;2023-05-02T10:43:53;17.64;63.80
68746;SHT31;66104;45.456;11.064;2023-05-02T10:46:31;17.68;63.94
68746;SHT31;66104;45.456;11.064;2023-05-02T10:49:10;17.68;62.85
68746;SHT31;66104;45.456;11.064;2023-05-02T10:51:46;17.70;62.85
68746;SHT31;66104;45.456;11.064;2023-05-02T10:54:24;17.71;62.04
68746;SHT31;66104;45.456;11.064;2023-05-02T10:57:05;17.72;61.79
68746;SHT31;66104;45.456;11.064;2023-05-02T10:59:41;17.75;61.58
68746;SHT31;66104;45.456;11.064;2023-05-02T11:02:47;17.76;61.27
68746;SHT31;66104;45.456;11.064;2023-05-02T11:05:25;17.80;60.95
68746;SHT31;66104;45.456;11.064;2023-05-02T11:14:40;17.89;58.75
68746;SHT31;66104;45.456;11.064;2023-05-02T11:17:31;17.92;58.21
68746;SHT31;66104;45.456;11.064;2023-05-02T11:20:38;17.94;57.88
68746;SHT31;66104;45.456;11.064;2023-05-02T11:23:25;17.98;57.58
68746;SHT31;66104;45.456;11.064;2023-05-02T11:26:04;18.02;57.83
68746;SHT31;66104;45.456;11.064;2023-05-02T11:28:55;18.08;57.95
68746;SHT31;66104;45.456;11.064;2023-05-02T11:34:41;18.16;57.74
68746;SHT31;66104;45.456;11.064;2023-05-02T11:37:20;18.20;57.94
68746;SHT31;66104;45.456;11.064;2023-05-02T11:42:51;18.31;57.82
68746;SHT31;66104;45.456;11.064;2023-05-02T11:45:33;18.32;57.07
68746;SHT31;66104;45.456;11.064;2023-05-02T11:48:11;18.28;57.66
68746;SHT31;66104;45.456;11.064;2023-05-02T11:50:51;18.28;58.66
68746;SHT31;66104;45.456;11.064;2023-05-02T11:53:33;18.30;58.69
68746;SHT31;66104;45.456;11.064;2023-05-02T11:56:14;18.32;58.33
68746;SHT31;66104;45.456;11.064;2023-05-02T11:58:59;18.32;57.73
68746;SHT31;66104;45.456;11.064;2023-05-02T12:01:36;18.34;58.29
68746;SHT31;66104;45.456;11.064;2023-05-02T12:04:21;18.36;57.75
68746;SHT31;66104;45.456;11.064;2023-05-02T12:06:59;18.36;56.98
68746;SHT31;66104;45.456;11.064;2023-05-02T12:09:50;18.38;56.52
68746;SHT31;66104;45.456;11.064;2023-05-02T12:12:28;18.40;56.51
68746;SHT31;66104;45.456;11.064;2023-05-02T12:15:05;18.42;56.97
68746;SHT31;66104;45.456;11.064;2023-05-02T12:17:45;18.46;57.36
68746;SHT31;66104;45.456;11.064;2023-05-02T12:20:23;18.49;57.33
68746;SHT31;66104;45.456;11.064;2023-05-02T12:23:00;18.53;56.60
68746;SHT31;66104;45.456;11.064;2023-05-02T12:25:38;18.56;57.02
68746;SHT31;66104;45.456;11.064;2023-05-02T12:28:18;18.58;55.75
68746;SHT31;66104;45.456;11.064;2023-05-02T12:30:54;18.59;56.31
68746;SHT31;66104;45.456;11.064;2023-05-02T12:33:45;18.62;56.73
68746;SHT31;66104;45.456;11.064;2023-05-02T12:36:26;18.65;55.43
68746;SHT31;66104;45.456;11.064;2023-05-02T12:39:03;18.66;55.79
68746;SHT31;66104;45.456;11.064;2023-05-02T12:41:40;18.70;55.25
68746;SHT31;66104;45.456;11.064;2023-05-02T12:44:18;18.72;54.89
68746;SHT31;66104;45.456;11.064;2023-05-02T12:47:12;18.72;55.12
68746;SHT31;66104;45.456;11.064;2023-05-02T12:49:52;18.74;55.65
68746;SHT31;66104;45.456;11.064;2023-05-02T12:52:49;18.78;55.46
68746;SHT31;66104;45.456;11.064;2023-05-02T12:55:28;18.81;55.45
68746;SHT31;66104;45.456;11.064;2023-05-02T12:58:06;18.85;55.94
68746;SHT31;66104;45.456;11.064;2023-05-02T13:00:43;18.87;55.89
68746;SHT31;66104;45.456;11.064;2023-05-02T13:03:20;18.90;55.07
68746;SHT31;66104;45.456;11.064;2023-05-02T13:05:57;18.91;54.87
68746;SHT31;66104;45.456;11.064;2023-05-02T13:08:34;18.92;54.79
68746;SHT31;66104;45.456;11.064;2023-05-02T13:11:11;18.91;54.34
68746;SHT31;66104;45.456;11.064;2023-05-02T13:13:48;18.90;55.03
68746;SHT31;66104;45.456;11.064;2023-05-02T13:16:25;18.91;54.67
68746;SHT31;66104;45.456;11.064;2023-05-02T13:19:05;18.88;54.23
68746;SHT31;66104;45.456;11.064;2023-05-02T13:21:42;18.87;54.56
68746;SHT31;66104;45.456;11.064;2023-05-02T13:24:19;18.89;54.88
68746;SHT31;66104;45.456;11.064;2023-05-02T13:26:55;18.91;55.08
68746;SHT31;66104;45.456;11.064;2023-05-02T13:29:32;18.94;54.92
68746;SHT31;66104;45.456;11.064;2023-05-02T13:32:10;18.98;54.55
68746;SHT31;66104;45.456;11.064;2023-05-02T13:34:46;19.00;54.43
68746;SHT31;66104;45.456;11.064;2023-05-02T13:37:23;19.02;54.09
68746;SHT31;66104;45.456;11.064;2023-05-02T13:40:01;19.04;53.71
68746;SHT31;66104;45.456;11.064;2023-05-02T13:42:43;19.06;54.04
68746;SHT31;66104;45.456;11.064;2023-05-02T13:45:20;19.06;53.24
68746;SHT31;66104;45.456;11.064;2023-05-02T13:47:58;19.04;53.77
68746;SHT31;66104;45.456;11.064;2023-05-02T13:50:35;19.07;53.80
68746;SHT31;66104;45.456;11.064;2023-05-02T13:53:12;19.09;53.40
68746;SHT31;66104;45.456;11.064;2023-05-02T13:55:50;19.11;53.99
68746;SHT31;66104;45.456;11.064;2023-05-02T13:58:27;19.12;54.18
68746;SHT31;66104;45.456;11.064;2023-05-02T14:01:05;19.12;53.48
68746;SHT31;66104;45.456;11.064;2023-05-02T14:03:42;19.11;53.38
68746;SHT31;66104;45.456;11.064;2023-05-02T14:06:19;19.11;53.67
68746;SHT31;66104;45.456;11.064;2023-05-02T14:08:56;19.10;54.25
68746;SHT31;66104;45.456;11.064;2023-05-02T14:11:33;19.09;54.07
68746;SHT31;66104;45.456;11.064;2023-05-02T14:14:10;19.07;53.97
68746;SHT31;66104;45.456;11.064;2023-05-02T14:16:47;19.05;53.31
68746;SHT31;66104;45.456;11.064;2023-05-02T14:19:24;19.05;53.72
68746;SHT31;66104;45.456;11.064;2023-05-02T14:22:01;19.05;53.86
68746;SHT31;66104;45.456;11.064;2023-05-02T14:24:38;19.04;53.33
68746;SHT31;66104;45.456;11.064;2023-05-02T14:27:16;18.99;53.67
68746;SHT31;66104;45.456;11.064;2023-05-02T14:29:53;18.97;53.29
68746;SHT31;66104;45.456;11.064;2023-05-02T14:32:32;18.95;53.43
68746;SHT31;66104;45.456;11.064;2023-05-02T14:35:10;18.90;53.38
68746;SHT31;66104;45.456;11.064;2023-05-02T14:37:47;18.86;53.97
68746;SHT31;66104;45.456;11.064;2023-05-02T14:40:25;18.81;54.23
68746;SHT31;66104;45.456;11.064;2023-05-02T14:43:03;18.79;54.89
68746;SHT31;66104;45.456;11.064;2023-05-02T14:45:41;18.73;55.01
68746;SHT31;66104;45.456;11.064;2023-05-02T14:48:19;18.67;54.89
68746;SHT31;66104;45.456;11.064;2023-05-02T14:50:56;18.63;55.40
68746;SHT31;66104;45.456;11.064;2023-05-02T14:53:37;18.61;55.76
68746;SHT31;66104;45.456;11.064;2023-05-02T14:56:14;18.59;56.15
68746;SHT31;66104;45.456;11.064;2023-05-02T14:58:51;18.59;56.25
68746;SHT31;66104;45.456;11.064;2023-05-02T15:01:28;18.59;56.18
68746;SHT31;66104;45.456;11.064;2023-05-02T15:04:07;18.59;56.58
68746;SHT31;66104;45.456;11.064;2023-05-02T15:06:46;18.60;56.51
68746;SHT31;66104;45.456;11.064;2023-05-02T15:09:24;18.59;56.06
68746;SHT31;66104;45.456;11.064;2023-05-02T15:12:01;18.58;56.27
68746;SHT31;66104;45.456;11.064;2023-05-02T15:14:39;18.58;56.75
68746;SHT31;66104;45.456;11.064;2023-05-02T15:17:16;18.58;56.60
68746;SHT31;66104;45.456;11.064;2023-05-02T15:19:53;18.58;56.30
68746;SHT31;66104;45.456;11.064;2023-05-02T15:22:30;18.58;56.17
68746;SHT31;66104;45.456;11.064;2023-05-02T15:25:10;18.56;55.84
68746;SHT31;66104;45.456;11.064;2023-05-02T15:27:49;18.54;56.00
68746;SHT31;66104;45.456;11.064;2023-05-02T15:30:26;18.53;56.39
68746;SHT31;66104;45.456;11.064;2023-05-02T15:33:04;18.52;56.28
68746;SHT31;66104;45.456;11.064;2023-05-02T15:35:44;18.51;56.07
68746;SHT31;66104;45.456;11.064;2023-05-02T15:38:28;18.50;55.92
68746;SHT31;66104;45.456;11.064;2023-05-02T15:41:08;18.47;56.16
68746;SHT31;66104;45.456;11.064;2023-05-02T15:43:45;18.45;56.31
68746;SHT31;66104;45.456;11.064;2023-05-02T15:46:21;18.40;56.24
68746;SHT31;66104;45.456;11.064;2023-05-02T15:48:58;18.37;56.41
68746;SHT31;66104;45.456;11.064;2023-05-02T15:51:36;18.37;56.58
68746;SHT31;66104;45.456;11.064;2023-05-02T15:54:13;18.36;56.94
68746;SHT31;66104;45.456;11.064;2023-05-02T15:56:50;18.34;56.23
68746;SHT31;66104;45.456;11.064;2023-05-02T15:59:27;18.31;56.58
68746;SHT31;66104;45.456;11.064;2023-05-02T16:02:04;18.26;56.20
68746;SHT31;66104;45.456;11.064;2023-05-02T16:04:40;18.23;56.56
68746;SHT31;66104;45.456;11.064;2023-05-02T16:07:19;18.22;56.69
68746;SHT31;66104;45.456;11.064;2023-05-02T16:09:55;18.21;56.91
68746;SHT31;66104;45.456;11.064;2023-05-02T16:12:32;18.17;56.43
68746;SHT31;66104;45.456;11.064;2023-05-02T16:15:10;18.15;55.95
68746;SHT31;66104;45.456;11.064;2023-05-02T16:17:48;18.15;55.59
68746;SHT31;66104;45.456;11.064;2023-05-02T16:20:25;18.13;55.30
68746;SHT31;66104;45.456;11.064;2023-05-02T16:23:04;18.12;55.56
68746;SHT31;66104;45.456;11.064;2023-05-02T16:25:42;18.09;55.73
68746;SHT31;66104;45.456;11.064;2023-05-02T16:28:20;18.07;55.79
68746;SHT31;66104;45.456;11.064;2023-05-02T16:30:58;18.05;55.57
68746;SHT31;66104;45.456;11.064;2023-05-02T16:33:43;18.03;55.45
68746;SHT31;66104;45.456;11.064;2023-05-02T16:36:20;18.01;55.51
68746;SHT31;66104;45.456;11.064;2023-05-02T16:38:57;18.00;55.55
68746;SHT31;66104;45.456;11.064;2023-05-02T16:41:35;18.00;55.42
68746;SHT31;66104;45.456;11.064;2023-05-02T16:44:12;17.99;55.76
68746;SHT31;66104;45.456;11.064;2023-05-02T16:46:49;17.98;55.79
68746;SHT31;66104;45.456;11.064;2023-05-02T16:49:27;17.98;55.42
68746;SHT31;66104;45.456;11.064;2023-05-02T16:52:05;17.97;55.23
68746;SHT31;66104;45.456;11.064;2023-05-02T16:54:44;17.98;55.50
68746;SHT31;66104;45.456;11.064;2023-05-02T16:57:21;17.98;55.66
68746;SHT31;66104;45.456;11.064;2023-05-02T16:59:58;17.97;55.69
68746;SHT31;66104;45.456;11.064;2023-05-02T17:02:38;17.95;55.54
68746;SHT31;66104;45.456;11.064;2023-05-02T17:05:16;17.97;55.32
68746;SHT31;66104;45.456;11.064;2023-05-02T17:07:54;17.97;55.19
68746;SHT31;66104;45.456;11.064;2023-05-02T17:10:31;17.98;54.82
68746;SHT31;66104;45.456;11.064;2023-05-02T17:13:08;17.99;54.50
68746;SHT31;66104;45.456;11.064;2023-05-02T17:15:44;18.00;53.99
68746;SHT31;66104;45.456;11.064;2023-05-02T17:18:21;18.02;54.05
68746;SHT31;66104;45.456;11.064;2023-05-02T17:20:58;18.03;53.41
68746;SHT31;66104;45.456;11.064;2023-05-02T17:23:36;18.05;53.42
68746;SHT31;66104;45.456;11.064;2023-05-02T17:26:13;18.06;53.47
68746;SHT31;66104;45.456;11.064;2023-05-02T17:28:52;18.07;52.84
68746;SHT31;66104;45.456;11.064;2023-05-02T17:31:31;18.08;53.24
68746;SHT31;66104;45.456;11.064;2023-05-02T17:34:08;18.08;52.78
68746;SHT31;66104;45.456;11.064;2023-05-02T17:36:45;18.10;52.60
68746;SHT31;66104;45.456;11.064;2023-05-02T17:39:22;18.10;52.76
68746;SHT31;66104;45.456;11.064;2023-05-02T17:42:00;18.09;53.11
68746;SHT31;66104;45.456;11.064;2023-05-02T17:44:37;18.06;53.10
68746;SHT31;66104;45.456;11.064;2023-05-02T17:47:16;18.06;52.78
68746;SHT31;66104;45.456;11.064;2023-05-02T17:49:54;18.07;52.87
68746;SHT31;66104;45.456;11.064;2023-05-02T17:52:32;18.05;53.39
68746;SHT31;66104;45.456;11.064;2023-05-02T17:55:10;18.01;53.24
68746;SHT31;66104;45.456;11.064;2023-05-02T17:57:47;18.01;53.12
68746;SHT31;66104;45.456;11.064;2023-05-02T18:00:26;17.98;53.42
68746;SHT31;66104;45.456;11.064;2023-05-02T18:03:04;17.95;53.88
68746;SHT31;66104;45.456;11.064;2023-05-02T18:05:41;17.90;54.51
68746;SHT31;66104;45.456;11.064;2023-05-02T18:08:18;17.81;55.37
68746;SHT31;66104;45.456;11.064;2023-05-02T18:10:56;17.67;56.21
68746;SHT31;66104;45.456;11.064;2023-05-02T18:13:33;17.57;57.01
68746;SHT31;66104;45.456;11.064;2023-05-02T18:16:11;17.48;57.57
68746;SHT31;66104;45.456;11.064;2023-05-02T18:18:49;17.39;58.16
68746;SHT31;66104;45.456;11.064;2023-05-02T18:21:26;17.31;58.85
68746;SHT31;66104;45.456;11.064;2023-05-02T18:24:06;17.23;59.40
68746;SHT31;66104;45.456;11.064;2023-05-02T18:26:43;17.17;59.84
68746;SHT31;66104;45.456;11.064;2023-05-02T18:29:23;17.09;60.49
68746;SHT31;66104;45.456;11.064;2023-05-02T18:31:59;17.00;61.08
68746;SHT31;66104;45.456;11.064;2023-05-02T18:34:37;16.92;61.54
68746;SHT31;66104;45.456;11.064;2023-05-02T18:37:15;16.86;62.00
68746;SHT31;66104;45.456;11.064;2023-05-02T18:40:00;16.79;62.38
68746;SHT31;66104;45.456;11.064;2023-05-02T18:42:41;16.75;62.51
68746;SHT31;66104;45.456;11.064;2023-05-02T18:45:20;16.71;62.75
68746;SHT31;66104;45.456;11.064;2023-05-02T18:47:57;16.69;62.68
68746;SHT31;66104;45.456;11.064;2023-05-02T18:50:33;16.70;62.81
68746;SHT31;66104;45.456;11.064;2023-05-02T18:53:10;16.69;62.87
68746;SHT31;66104;45.456;11.064;2023-05-02T18:55:49;16.69;62.94
68746;SHT31;66104;45.456;11.064;2023-05-02T18:58:28;16.69;62.93
68746;SHT31;66104;45.456;11.064;2023-05-02T19:01:11;16.68;63.18
68746;SHT31;66104;45.456;11.064;2023-05-02T19:03:49;16.67;63.20
68746;SHT31;66104;45.456;11.064;2023-05-02T19:06:28;16.67;63.25
68746;SHT31;66104;45.456;11.064;2023-05-02T19:09:05;16.69;63.19
68746;SHT31;66104;45.456;11.064;2023-05-02T19:11:42;16.70;63.22
68746;SHT31;66104;45.456;11.064;2023-05-02T19:14:19;16.70;63.23
68746;SHT31;66104;45.456;11.064;2023-05-02T19:16:56;16.72;63.23
68746;SHT31;66104;45.456;11.064;2023-05-02T19:19:34;16.73;63.44
68746;SHT31;66104;45.456;11.064;2023-05-02T19:22:11;16.74;63.53
68746;SHT31;66104;45.456;11.064;2023-05-02T19:24:50;16.75;63.49
68746;SHT31;66104;45.456;11.064;2023-05-02T19:27:27;16.77;63.43
68746;SHT31;66104;45.456;11.064;2023-05-02T19:30:05;16.79;63.36
68746;SHT31;66104;45.456;11.064;2023-05-02T19:32:46;16.80;63.23
68746;SHT31;66104;45.456;11.064;2023-05-02T19:35:23;16.81;63.21
68746;SHT31;66104;45.456;11.064;2023-05-02T19:38:02;16.82;63.34
68746;SHT31;66104;45.456;11.064;2023-05-02T19:40:39;16.82;63.38
68746;SHT31;66104;45.456;11.064;2023-05-02T19:43:16;16.83;62.87
68746;SHT31;66104;45.456;11.064;2023-05-02T19:45:53;16.84;62.89
68746;SHT31;66104;45.456;11.064;2023-05-02T19:48:31;16.86;62.66
68746;SHT31;66104;45.456;11.064;2023-05-02T19:51:09;16.89;62.43
68746;SHT31;66104;45.456;11.064;2023-05-02T19:53:45;16.91;62.41
68746;SHT31;66104;45.456;11.064;2023-05-02T19:56:23;16.92;62.20
68746;SHT31;66104;45.456;11.064;2023-05-02T19:59:00;16.93;62.10
68746;SHT31;66104;45.456;11.064;2023-05-02T20:01:37;16.94;61.86
68746;SHT31;66104;45.456;11.064;2023-05-02T20:04:14;16.95;61.33
68746;SHT31;66104;45.456;11.064;2023-05-02T20:06:53;16.97;61.10
68746;SHT31;66104;45.456;11.064;2023-05-02T20:09:29;16.99;60.90
68746;SHT31;66104;45.456;11.064;2023-05-02T20:12:07;17.01;60.70
68746;SHT31;66104;45.456;11.064;2023-05-02T20:14:42;17.04;60.58
68746;SHT31;66104;45.456;11.064;2023-05-02T20:17:20;17.06;60.24
68746;SHT31;66104;45.456;11.064;2023-05-02T20:19:57;17.06;60.15
68746;SHT31;66104;45.456;11.064;2023-05-02T20:22:36;17.08;60.11
68746;SHT31;66104;45.456;11.064;2023-05-02T20:25:12;17.10;60.16
68746;SHT31;66104;45.456;11.064;2023-05-02T20:27:50;17.12;59.71
68746;SHT31;66104;45.456;11.064;2023-05-02T20:30:27;17.15;59.88
68746;SHT31;66104;45.456;11.064;2023-05-02T20:33:04;17.17;59.88
68746;SHT31;66104;45.456;11.064;2023-05-02T20:35:45;17.19;59.89
68746;SHT31;66104;45.456;11.064;2023-05-02T20:38:28;17.21;59.81
68746;SHT31;66104;45.456;11.064;2023-05-02T20:41:10;17.23;59.69
68746;SHT31;66104;45.456;11.064;2023-05-02T20:43:48;17.25;59.74
68746;SHT31;66104;45.456;11.064;2023-05-02T20:46:24;17.26;59.49
68746;SHT31;66104;45.456;11.064;2023-05-02T20:49:01;17.27;59.44
68746;SHT31;66104;45.456;11.064;2023-05-02T20:51:38;17.27;58.64
68746;SHT31;66104;45.456;11.064;2023-05-02T20:54:15;17.26;58.63
68746;SHT31;66104;45.456;11.064;2023-05-02T20:56:51;17.26;58.98
68746;SHT31;66104;45.456;11.064;2023-05-02T20:59:28;17.26;59.03
68746;SHT31;66104;45.456;11.064;2023-05-02T21:02:06;17.23;58.92
68746;SHT31;66104;45.456;11.064;2023-05-02T21:04:43;17.22;58.81
68746;SHT31;66104;45.456;11.064;2023-05-02T21:07:19;17.21;58.94
68746;SHT31;66104;45.456;11.064;2023-05-02T21:09:57;17.20;59.23
68746;SHT31;66104;45.456;11.064;2023-05-02T21:12:39;17.18;59.04
68746;SHT31;66104;45.456;11.064;2023-05-02T21:15:16;17.17;58.58
68746;SHT31;66104;45.456;11.064;2023-05-02T21:18:00;17.17;58.30
68746;SHT31;66104;45.456;11.064;2023-05-02T21:20:38;17.20;57.29
68746;SHT31;66104;45.456;11.064;2023-05-02T21:23:16;17.22;57.24
68746;SHT31;66104;45.456;11.064;2023-05-02T21:25:54;17.24;57.13
68746;SHT31;66104;45.456;11.064;2023-05-02T21:28:32;17.25;57.27
68746;SHT31;66104;45.456;11.064;2023-05-02T21:31:08;17.26;57.34
68746;SHT31;66104;45.456;11.064;2023-05-02T21:33:45;17.25;57.18
68746;SHT31;66104;45.456;11.064;2023-05-02T21:36:22;17.26;57.15
68746;SHT31;66104;45.456;11.064;2023-05-02T21:38:59;17.26;57.22
68746;SHT31;66104;45.456;11.064;2023-05-02T21:41:36;17.24;57.31
68746;SHT31;66104;45.456;11.064;2023-05-02T21:44:13;17.24;57.29
68746;SHT31;66104;45.456;11.064;2023-05-02T21:46:50;17.23;56.94
68746;SHT31;66104;45.456;11.064;2023-05-02T21:49:27;17.23;56.92
68746;SHT31;66104;45.456;11.064;2023-05-02T21:52:04;17.23;56.75
68746;SHT31;66104;45.456;11.064;2023-05-02T21:54:42;17.23;56.50
68746;SHT31;66104;45.456;11.064;2023-05-02T21:57:21;17.24;56.58
68746;SHT31;66104;45.456;11.064;2023-05-02T21:59:58;17.23;56.64
68746;SHT31;66104;45.456;11.064;2023-05-02T22:02:42;17.22;56.78
68746;SHT31;66104;45.456;11.064;2023-05-02T22:05:19;17.21;56.92
68746;SHT31;66104;45.456;11.064;2023-05-02T22:07:56;17.19;56.96
68746;SHT31;66104;45.456;11.064;2023-05-02T22:10:35;17.19;56.82
68746;SHT31;66104;45.456;11.064;2023-05-02T22:13:14;17.19;56.83
68746;SHT31;66104;45.456;11.064;2023-05-02T22:15:52;17.19;56.86
68746;SHT31;66104;45.456;11.064;2023-05-02T22:18:30;17.18;56.62
68746;SHT31;66104;45.456;11.064;2023-05-02T22:21:08;17.18;56.51
68746;SHT31;66104;45.456;11.064;2023-05-02T22:23:47;17.19;56.74
68746;SHT31;66104;45.456;11.064;2023-05-02T22:26:23;17.20;56.66
68746;SHT31;66104;45.456;11.064;2023-05-02T22:29:01;17.21;56.45
68746;SHT31;66104;45.456;11.064;2023-05-02T22:31:38;17.23;56.50
68746;SHT31;66104;45.456;11.064;2023-05-02T22:34:15;17.25;56.50
68746;SHT31;66104;45.456;11.064;2023-05-02T22:36:54;17.25;56.42
68746;SHT31;66104;45.456;11.064;2023-05-02T22:39:30;17.26;56.53
68746;SHT31;66104;45.456;11.064;2023-05-02T22:42:07;17.27;56.26
68746;SHT31;66104;45.456;11.064;2023-05-02T22:44:45;17.26;56.22
68746;SHT31;66104;45.456;11.064;2023-05-02T22:47:24;17.26;56.10
68746;SHT31;66104;45.456;11.064;2023-05-02T22:50:00;17.26;56.26
68746;SHT31;66104;45.456;11.064;2023-05-02T22:52:42;17.27;56.24
68746;SHT31;66104;45.456;11.064;2023-05-02T22:55:19;17.25;59.51
68746;SHT31;66104;45.456;11.064;2023-05-02T22:57:57;17.20;61.09
68746;SHT31;66104;45.456;11.064;2023-05-02T23:00:34;17.14;61.44
68746;SHT31;66104;45.456;11.064;2023-05-02T23:03:11;17.10;61.96
68746;SHT31;66104;45.456;11.064;2023-05-02T23:05:48;17.04;62.40
68746;SHT31;66104;45.456;11.064;2023-05-02T23:08:25;16.99;62.98
68746;SHT31;66104;45.456;11.064;2023-05-02T23:11:02;16.93;63.49
68746;SHT31;66104;45.456;11.064;2023-05-02T23:13:40;16.85;64.06
68746;SHT31;66104;45.456;11.064;2023-05-02T23:16:17;16.79;64.51
68746;SHT31;66104;45.456;11.064;2023-05-02T23:18:54;16.74;64.94
68746;SHT31;66104;45.456;11.064;2023-05-02T23:21:31;16.69;65.55
68746;SHT31;66104;45.456;11.064;2023-05-02T23:24:09;16.61;65.94
68746;SHT31;66104;45.456;11.064;2023-05-02T23:26:46;16.57;66.21
68746;SHT31;66104;45.456;11.064;2023-05-02T23:29:24;16.55;66.40
68746;SHT31;66104;45.456;11.064;2023-05-02T23:32:02;16.55;66.66
68746;SHT31;66104;45.456;11.064;2023-05-02T23:34:39;16.50;67.14
68746;SHT31;66104;45.456;11.064;2023-05-02T23:37:17;16.37;67.67
68746;SHT31;66104;45.456;11.064;2023-05-02T23:39:54;16.27;68.11
68746;SHT31;66104;45.456;11.064;2023-05-02T23:42:30;16.25;68.39
68746;SHT31;66104;45.456;11.064;2023-05-02T23:45:08;16.22;68.48
68746;SHT31;66104;45.456;11.064;2023-05-02T23:47:47;16.19;68.59
68746;SHT31;66104;45.456;11.064;2023-05-02T23:50:24;16.15;68.96
68746;SHT31;66104;45.456;11.064;2023-05-02T23:53:02;16.16;69.22
68746;SHT31;66104;45.456;11.064;2023-05-02T23:55:39;16.14;69.16
68746;SHT31;66104;45.456;11.064;2023-05-02T23:58:15;16.11;69.39
